PWSweather.com
Personal Weather Stations
Station Observations
K4FB1
Clubhouse Heritage, Lakeland, FL 33812

Clubhouse HeritageLakeland, FL 33812

Lat: 27.969224, Lon: -81.897769

Elevation: 145

Station Type: Davis Vantage Pro2

http://www.ClubhouseWX.com

High Low Average
Temperature 89.5°F31.9°C 72.6°F22.6°C 77.4°F25.2°C
Dew Point 79.4°F26.3°C 71.4°F21.9°C 74.6°F23.7°C
Winds 8.0 mph 12.9 kmh Calm Calm 3.0 mph S4.8 kmh S
Wind Gusts 19.0 mph30.6 kmh 1.0 mph1.6 kmh 6.0 mph9.7 kmh
Humidity 98% 66% 92%
Pressure 30.07 in1018.3 mb 29.96 in1014.6 mb -
Precipitation 1.31 in33.3 mm - -
Hour Temp Dew Point Humidity Winds Wind Gusts Pressure Precip Precip Rate Daily Precip Total
12:00 AM 77.4°F25.2°C 73.9°F23.3°C 89% 2.0 mph S3.2 kmh S 4.0 mph6.4 kmh 30.01 in1016.3 mb 0.00 in0.0 mm 0.00 in0.0 mm 0.00 in0.0 mm
12:05 AM 77.4°F25.2°C 74.2°F23.4°C 90% 2.0 mph SSW3.2 kmh SSW 4.0 mph6.4 kmh 30.00 in1015.9 mb 0.00 in0.0 mm 0.00 in0.0 mm 0.00 in0.0 mm
12:10 AM 77.4°F25.2°C 74.2°F23.4°C 90% 2.0 mph SSW3.2 kmh SSW 6.0 mph9.7 kmh 30.00 in1015.9 mb 0.00 in0.0 mm 0.00 in0.0 mm 0.00 in0.0 mm
12:15 AM 77.3°F25.2°C 74.1°F23.4°C 90% 2.0 mph SSW3.2 kmh SSW 6.0 mph9.7 kmh 30.00 in1015.9 mb 0.00 in0.0 mm 0.00 in0.0 mm 0.00 in0.0 mm
12:20 AM 77.3°F25.2°C 74.5°F23.6°C 91% 2.0 mph SSW3.2 kmh SSW 4.0 mph6.4 kmh 30.00 in1015.9 mb 0.00 in0.0 mm 0.00 in0.0 mm 0.00 in0.0 mm
12:25 AM 77.2°F25.1°C 74.4°F23.6°C 91% 2.0 mph SSW3.2 kmh SSW 4.0 mph6.4 kmh 30.00 in1015.9 mb 0.00 in0.0 mm 0.00 in0.0 mm 0.00 in0.0 mm
12:30 AM 77.2°F25.1°C 74.4°F23.6°C 91% 2.0 mph SSW3.2 kmh SSW 4.0 mph6.4 kmh 30.00 in1015.9 mb 0.00 in0.0 mm 0.00 in0.0 mm 0.00 in0.0 mm
12:35 AM 77.3°F25.2°C 74.8°F23.8°C 92% 2.0 mph SSW3.2 kmh SSW 4.0 mph6.4 kmh 30.00 in1015.9 mb 0.00 in0.0 mm 0.00 in0.0 mm 0.00 in0.0 mm
12:40 AM 77.3°F25.2°C 74.8°F23.8°C 92% 2.0 mph S3.2 kmh S 6.0 mph9.7 kmh 30.00 in1015.9 mb 0.00 in0.0 mm 0.00 in0.0 mm 0.00 in0.0 mm
12:45 AM 77.3°F25.2°C 74.8°F23.8°C 92% 3.0 mph S4.8 kmh S 6.0 mph9.7 kmh 29.99 in1015.6 mb 0.00 in0.0 mm 0.00 in0.0 mm 0.00 in0.0 mm
12:50 AM 77.2°F25.1°C 74.7°F23.7°C 92% 3.0 mph S4.8 kmh S 6.0 mph9.7 kmh 29.99 in1015.6 mb 0.00 in0.0 mm 0.00 in0.0 mm 0.00 in0.0 mm
12:55 AM 77.2°F25.1°C 74.7°F23.7°C 92% 3.0 mph S4.8 kmh S 6.0 mph9.7 kmh 29.99 in1015.6 mb 0.00 in0.0 mm 0.00 in0.0 mm 0.00 in0.0 mm
01:00 AM 77.1°F25.1°C 74.6°F23.7°C 92% 3.0 mph S4.8 kmh S 6.0 mph9.7 kmh 29.99 in1015.6 mb 0.00 in0.0 mm 0.00 in0.0 mm 0.00 in0.0 mm
01:05 AM 77.1°F25.1°C 74.9°F23.8°C 93% 4.0 mph S6.4 kmh S 7.0 mph11.3 kmh 29.98 in1015.2 mb 0.00 in0.0 mm 0.00 in0.0 mm 0.00 in0.0 mm
01:10 AM 77.0°F25.0°C 74.8°F23.8°C 93% 3.0 mph S4.8 kmh S 7.0 mph11.3 kmh 29.98 in1015.2 mb 0.00 in0.0 mm 0.00 in0.0 mm 0.00 in0.0 mm
01:15 AM 76.9°F24.9°C 74.7°F23.7°C 93% 3.0 mph S4.8 kmh S 6.0 mph9.7 kmh 29.98 in1015.2 mb 0.00 in0.0 mm 0.00 in0.0 mm 0.00 in0.0 mm
01:20 AM 76.9°F24.9°C 74.7°F23.7°C 93% 3.0 mph S4.8 kmh S 5.0 mph8.0 kmh 29.98 in1015.2 mb 0.00 in0.0 mm 0.00 in0.0 mm 0.00 in0.0 mm
01:25 AM 76.9°F24.9°C 74.7°F23.7°C 93% 2.0 mph S3.2 kmh S 5.0 mph8.0 kmh 29.98 in1015.2 mb 0.00 in0.0 mm 0.00 in0.0 mm 0.00 in0.0 mm
01:30 AM 76.9°F24.9°C 75.0°F23.9°C 94% 2.0 mph S3.2 kmh S 5.0 mph8.0 kmh 29.98 in1015.2 mb 0.00 in0.0 mm 0.00 in0.0 mm 0.00 in0.0 mm
01:35 AM 76.9°F24.9°C 75.0°F23.9°C 94% 2.0 mph S3.2 kmh S 4.0 mph6.4 kmh 29.98 in1015.2 mb 0.00 in0.0 mm 0.00 in0.0 mm 0.00 in0.0 mm
01:40 AM 76.9°F24.9°C 75.0°F23.9°C 94% 3.0 mph S4.8 kmh S 4.0 mph6.4 kmh 29.98 in1015.2 mb 0.00 in0.0 mm 0.00 in0.0 mm 0.00 in0.0 mm
01:45 AM 76.8°F24.9°C 74.9°F23.8°C 94% 2.0 mph S3.2 kmh S 4.0 mph6.4 kmh 29.98 in1015.2 mb 0.00 in0.0 mm 0.00 in0.0 mm 0.00 in0.0 mm
01:50 AM 76.8°F24.9°C 74.9°F23.8°C 94% 2.0 mph S3.2 kmh S 5.0 mph8.0 kmh 29.98 in1015.2 mb 0.00 in0.0 mm 0.00 in0.0 mm 0.00 in0.0 mm
01:55 AM 76.9°F24.9°C 75.0°F23.9°C 94% 2.0 mph S3.2 kmh S 5.0 mph8.0 kmh 29.98 in1015.2 mb 0.00 in0.0 mm 0.00 in0.0 mm 0.00 in0.0 mm
02:00 AM 76.7°F24.8°C 74.8°F23.8°C 94% 2.0 mph SSE3.2 kmh SSE 4.0 mph6.4 kmh 29.98 in1015.2 mb 0.00 in0.0 mm 0.00 in0.0 mm 0.00 in0.0 mm
02:05 AM 76.7°F24.8°C 74.8°F23.8°C 94% 2.0 mph SSE3.2 kmh SSE 4.0 mph6.4 kmh 29.98 in1015.2 mb 0.00 in0.0 mm 0.00 in0.0 mm 0.00 in0.0 mm
02:10 AM 76.5°F24.7°C 74.6°F23.7°C 94% 2.0 mph SSE3.2 kmh SSE 5.0 mph8.0 kmh 29.98 in1015.2 mb 0.00 in0.0 mm 0.00 in0.0 mm 0.00 in0.0 mm
02:15 AM 76.4°F24.7°C 74.9°F23.8°C 95% 2.0 mph SSE3.2 kmh SSE 5.0 mph8.0 kmh 29.98 in1015.2 mb 0.00 in0.0 mm 0.00 in0.0 mm 0.00 in0.0 mm
02:20 AM 76.3°F24.6°C 74.8°F23.8°C 95% 2.0 mph SSE3.2 kmh SSE 4.0 mph6.4 kmh 29.98 in1015.2 mb 0.00 in0.0 mm 0.00 in0.0 mm 0.00 in0.0 mm
02:25 AM 76.2°F24.6°C 74.7°F23.7°C 95% 2.0 mph S3.2 kmh S 5.0 mph8.0 kmh 29.98 in1015.2 mb 0.00 in0.0 mm 0.00 in0.0 mm 0.00 in0.0 mm
02:30 AM 76.2°F24.6°C 74.7°F23.7°C 95% 2.0 mph S3.2 kmh S 5.0 mph8.0 kmh 29.98 in1015.2 mb 0.00 in0.0 mm 0.00 in0.0 mm 0.00 in0.0 mm
02:35 AM 76.1°F24.5°C 74.6°F23.7°C 95% 2.0 mph S3.2 kmh S 5.0 mph8.0 kmh 29.98 in1015.2 mb 0.00 in0.0 mm 0.00 in0.0 mm 0.00 in0.0 mm
02:40 AM 76.1°F24.5°C 74.6°F23.7°C 95% 2.0 mph SSE3.2 kmh SSE 5.0 mph8.0 kmh 29.97 in1014.9 mb 0.00 in0.0 mm 0.00 in0.0 mm 0.00 in0.0 mm
02:45 AM 76.0°F24.4°C 74.5°F23.6°C 95% 2.0 mph SSE3.2 kmh SSE 5.0 mph8.0 kmh 29.97 in1014.9 mb 0.00 in0.0 mm 0.00 in0.0 mm 0.00 in0.0 mm
02:50 AM 76.0°F24.4°C 74.5°F23.6°C 95% 2.0 mph SSE3.2 kmh SSE 5.0 mph8.0 kmh 29.97 in1014.9 mb 0.00 in0.0 mm 0.00 in0.0 mm 0.00 in0.0 mm
02:55 AM 76.0°F24.4°C 74.5°F23.6°C 95% 2.0 mph SSE3.2 kmh SSE 5.0 mph8.0 kmh 29.97 in1014.9 mb 0.00 in0.0 mm 0.00 in0.0 mm 0.00 in0.0 mm
03:00 AM 76.0°F24.4°C 74.8°F23.8°C 96% 2.0 mph SSE3.2 kmh SSE 5.0 mph8.0 kmh 29.97 in1014.9 mb 0.00 in0.0 mm 0.00 in0.0 mm 0.00 in0.0 mm
03:05 AM 76.0°F24.4°C 74.8°F23.8°C 96% 2.0 mph SSE3.2 kmh SSE 4.0 mph6.4 kmh 29.97 in1014.9 mb 0.00 in0.0 mm 0.00 in0.0 mm 0.00 in0.0 mm
03:10 AM 76.0°F24.4°C 74.8°F23.8°C 96% 2.0 mph SSE3.2 kmh SSE 4.0 mph6.4 kmh 29.97 in1014.9 mb 0.00 in0.0 mm 0.00 in0.0 mm 0.00 in0.0 mm
03:15 AM 76.0°F24.4°C 74.8°F23.8°C 96% 2.0 mph SSE3.2 kmh SSE 4.0 mph6.4 kmh 29.97 in1014.9 mb 0.00 in0.0 mm 0.00 in0.0 mm 0.00 in0.0 mm
03:20 AM 76.0°F24.4°C 74.8°F23.8°C 96% 2.0 mph S3.2 kmh S 5.0 mph8.0 kmh 29.97 in1014.9 mb 0.00 in0.0 mm 0.00 in0.0 mm 0.00 in0.0 mm
03:25 AM 76.1°F24.5°C 74.9°F23.8°C 96% 2.0 mph S3.2 kmh S 5.0 mph8.0 kmh 29.97 in1014.9 mb 0.00 in0.0 mm 0.00 in0.0 mm 0.00 in0.0 mm
03:30 AM 76.1°F24.5°C 74.9°F23.8°C 96% 2.0 mph S3.2 kmh S 4.0 mph6.4 kmh 29.97 in1014.9 mb 0.00 in0.0 mm 0.00 in0.0 mm 0.00 in0.0 mm
03:35 AM 76.1°F24.5°C 74.9°F23.8°C 96% 2.0 mph S3.2 kmh S 4.0 mph6.4 kmh 29.97 in1014.9 mb 0.00 in0.0 mm 0.00 in0.0 mm 0.00 in0.0 mm
03:40 AM 76.1°F24.5°C 74.9°F23.8°C 96% 2.0 mph S3.2 kmh S 4.0 mph6.4 kmh 29.97 in1014.9 mb 0.00 in0.0 mm 0.00 in0.0 mm 0.00 in0.0 mm
03:45 AM 76.2°F24.6°C 75.0°F23.9°C 96% 2.0 mph S3.2 kmh S 5.0 mph8.0 kmh 29.97 in1014.9 mb 0.00 in0.0 mm 0.00 in0.0 mm 0.00 in0.0 mm
03:50 AM 76.3°F24.6°C 75.1°F23.9°C 96% 2.0 mph S3.2 kmh S 5.0 mph8.0 kmh 29.97 in1014.9 mb 0.00 in0.0 mm 0.00 in0.0 mm 0.00 in0.0 mm
03:55 AM 76.4°F24.7°C 75.2°F24.0°C 96% 2.0 mph S3.2 kmh S 5.0 mph8.0 kmh 29.96 in1014.6 mb 0.00 in0.0 mm 0.00 in0.0 mm 0.00 in0.0 mm
04:00 AM 76.5°F24.7°C 75.0°F23.9°C 95% 3.0 mph S4.8 kmh S 6.0 mph9.7 kmh 29.96 in1014.6 mb 0.00 in0.0 mm 0.00 in0.0 mm 0.00 in0.0 mm
04:05 AM 76.5°F24.7°C 75.0°F23.9°C 95% 3.0 mph S4.8 kmh S 6.0 mph9.7 kmh 29.96 in1014.6 mb 0.00 in0.0 mm 0.00 in0.0 mm 0.00 in0.0 mm
04:10 AM 76.6°F24.8°C 74.7°F23.7°C 94% 3.0 mph S4.8 kmh S 6.0 mph9.7 kmh 29.96 in1014.6 mb 0.00 in0.0 mm 0.00 in0.0 mm 0.00 in0.0 mm
04:15 AM 76.6°F24.8°C 74.7°F23.7°C 94% 3.0 mph S4.8 kmh S 6.0 mph9.7 kmh 29.96 in1014.6 mb 0.00 in0.0 mm 0.00 in0.0 mm 0.00 in0.0 mm
04:20 AM 76.5°F24.7°C 74.6°F23.7°C 94% 2.0 mph S3.2 kmh S 4.0 mph6.4 kmh 29.96 in1014.6 mb 0.00 in0.0 mm 0.00 in0.0 mm 0.00 in0.0 mm
04:25 AM 76.5°F24.7°C 74.6°F23.7°C 94% 2.0 mph S3.2 kmh S 5.0 mph8.0 kmh 29.96 in1014.6 mb 0.00 in0.0 mm 0.00 in0.0 mm 0.00 in0.0 mm
04:30 AM 76.5°F24.7°C 74.6°F23.7°C 94% 2.0 mph S3.2 kmh S 5.0 mph8.0 kmh 29.96 in1014.6 mb 0.00 in0.0 mm 0.00 in0.0 mm 0.00 in0.0 mm
04:35 AM 76.4°F24.7°C 74.5°F23.6°C 94% 2.0 mph S3.2 kmh S 3.0 mph4.8 kmh 29.96 in1014.6 mb 0.00 in0.0 mm 0.00 in0.0 mm 0.00 in0.0 mm
04:40 AM 76.3°F24.6°C 74.4°F23.6°C 94% 1.0 mph S1.6 kmh S 3.0 mph4.8 kmh 29.96 in1014.6 mb 0.00 in0.0 mm 0.00 in0.0 mm 0.00 in0.0 mm
04:45 AM 76.3°F24.6°C 74.4°F23.6°C 94% 1.0 mph S1.6 kmh S 3.0 mph4.8 kmh 29.96 in1014.6 mb 0.00 in0.0 mm 0.00 in0.0 mm 0.00 in0.0 mm
04:50 AM 76.2°F24.6°C 74.7°F23.7°C 95% 1.0 mph S1.6 kmh S 3.0 mph4.8 kmh 29.96 in1014.6 mb 0.00 in0.0 mm 0.00 in0.0 mm 0.00 in0.0 mm
04:55 AM 76.1°F24.5°C 74.6°F23.7°C 95% 1.0 mph S1.6 kmh S 3.0 mph4.8 kmh 29.96 in1014.6 mb 0.00 in0.0 mm 0.00 in0.0 mm 0.00 in0.0 mm
05:00 AM 76.1°F24.5°C 74.6°F23.7°C 95% 1.0 mph S1.6 kmh S 2.0 mph3.2 kmh 29.96 in1014.6 mb 0.00 in0.0 mm 0.00 in0.0 mm 0.00 in0.0 mm
05:05 AM 76.0°F24.4°C 74.5°F23.6°C 95% 1.0 mph S1.6 kmh S 2.0 mph3.2 kmh 29.96 in1014.6 mb 0.00 in0.0 mm 0.00 in0.0 mm 0.00 in0.0 mm
05:10 AM 75.9°F24.4°C 74.4°F23.6°C 95% 1.0 mph S1.6 kmh S 2.0 mph3.2 kmh 29.96 in1014.6 mb 0.00 in0.0 mm 0.00 in0.0 mm 0.00 in0.0 mm
05:15 AM 75.9°F24.4°C 74.4°F23.6°C 95% 2.0 mph S3.2 kmh S 4.0 mph6.4 kmh 29.96 in1014.6 mb 0.00 in0.0 mm 0.00 in0.0 mm 0.00 in0.0 mm
05:20 AM 75.8°F24.3°C 74.3°F23.5°C 95% 3.0 mph S4.8 kmh S 5.0 mph8.0 kmh 29.96 in1014.6 mb 0.00 in0.0 mm 0.00 in0.0 mm 0.00 in0.0 mm
05:25 AM 75.6°F24.2°C 74.1°F23.4°C 95% 3.0 mph SSE4.8 kmh SSE 6.0 mph9.7 kmh 29.96 in1014.6 mb 0.00 in0.0 mm 0.00 in0.0 mm 0.00 in0.0 mm
05:30 AM 75.5°F24.2°C 74.0°F23.3°C 95% 3.0 mph SSE4.8 kmh SSE 6.0 mph9.7 kmh 29.97 in1014.9 mb 0.00 in0.0 mm 0.00 in0.0 mm 0.00 in0.0 mm
05:35 AM 75.4°F24.1°C 73.9°F23.3°C 95% 3.0 mph S4.8 kmh S 6.0 mph9.7 kmh 29.97 in1014.9 mb 0.00 in0.0 mm 0.00 in0.0 mm 0.00 in0.0 mm
05:40 AM 75.3°F24.1°C 74.1°F23.4°C 96% 3.0 mph S4.8 kmh S 6.0 mph9.7 kmh 29.97 in1014.9 mb 0.00 in0.0 mm 0.00 in0.0 mm 0.00 in0.0 mm
05:45 AM 75.3°F24.1°C 74.1°F23.4°C 96% 3.0 mph S4.8 kmh S 6.0 mph9.7 kmh 29.97 in1014.9 mb 0.00 in0.0 mm 0.00 in0.0 mm 0.00 in0.0 mm
05:50 AM 75.3°F24.1°C 74.1°F23.4°C 96% 3.0 mph S4.8 kmh S 5.0 mph8.0 kmh 29.97 in1014.9 mb 0.00 in0.0 mm 0.00 in0.0 mm 0.00 in0.0 mm
05:55 AM 75.3°F24.1°C 74.1°F23.4°C 96% 3.0 mph S4.8 kmh S 6.0 mph9.7 kmh 29.97 in1014.9 mb 0.00 in0.0 mm 0.00 in0.0 mm 0.00 in0.0 mm
06:00 AM 75.3°F24.1°C 74.1°F23.4°C 96% 2.0 mph S3.2 kmh S 6.0 mph9.7 kmh 29.97 in1014.9 mb 0.00 in0.0 mm 0.00 in0.0 mm 0.00 in0.0 mm
06:05 AM 75.4°F24.1°C 74.2°F23.4°C 96% 2.0 mph S3.2 kmh S 4.0 mph6.4 kmh 29.97 in1014.9 mb 0.00 in0.0 mm 0.00 in0.0 mm 0.00 in0.0 mm
06:10 AM 75.5°F24.2°C 74.3°F23.5°C 96% 1.0 mph S1.6 kmh S 4.0 mph6.4 kmh 29.98 in1015.2 mb 0.00 in0.0 mm 0.00 in0.0 mm 0.00 in0.0 mm
06:15 AM 75.5°F24.2°C 74.3°F23.5°C 96% 1.0 mph S1.6 kmh S 3.0 mph4.8 kmh 29.97 in1014.9 mb 0.00 in0.0 mm 0.00 in0.0 mm 0.00 in0.0 mm
06:20 AM 75.6°F24.2°C 74.4°F23.6°C 96% Calm Calm 3.0 mph4.8 kmh 29.98 in1015.2 mb 0.00 in0.0 mm 0.00 in0.0 mm 0.00 in0.0 mm
06:25 AM 75.8°F24.3°C 74.6°F23.7°C 96% Calm Calm 1.0 mph1.6 kmh 29.98 in1015.2 mb 0.00 in0.0 mm 0.00 in0.0 mm 0.00 in0.0 mm
06:30 AM 75.8°F24.3°C 74.6°F23.7°C 96% 1.0 mph S1.6 kmh S 3.0 mph4.8 kmh 29.98 in1015.2 mb 0.00 in0.0 mm 0.00 in0.0 mm 0.00 in0.0 mm
06:35 AM 76.1°F24.5°C 74.9°F23.8°C 96% 1.0 mph S1.6 kmh S 3.0 mph4.8 kmh 29.98 in1015.2 mb 0.00 in0.0 mm 0.00 in0.0 mm 0.00 in0.0 mm
06:40 AM 76.3°F24.6°C 75.1°F23.9°C 96% 2.0 mph S3.2 kmh S 5.0 mph8.0 kmh 29.98 in1015.2 mb 0.00 in0.0 mm 0.00 in0.0 mm 0.00 in0.0 mm
06:45 AM 76.6°F24.8°C 75.1°F23.9°C 95% 2.0 mph S3.2 kmh S 5.0 mph8.0 kmh 29.98 in1015.2 mb 0.00 in0.0 mm 0.00 in0.0 mm 0.00 in0.0 mm
06:50 AM 76.9°F24.9°C 75.0°F23.9°C 94% 3.0 mph S4.8 kmh S 6.0 mph9.7 kmh 29.99 in1015.6 mb 0.00 in0.0 mm 0.00 in0.0 mm 0.00 in0.0 mm
06:55 AM 77.2°F25.1°C 75.3°F24.1°C 94% 3.0 mph S4.8 kmh S 6.0 mph9.7 kmh 29.99 in1015.6 mb 0.00 in0.0 mm 0.00 in0.0 mm 0.00 in0.0 mm
07:00 AM 77.6°F25.3°C 75.4°F24.1°C 93% 3.0 mph S4.8 kmh S 6.0 mph9.7 kmh 30.00 in1015.9 mb 0.00 in0.0 mm 0.00 in0.0 mm 0.00 in0.0 mm
07:05 AM 77.9°F25.5°C 75.7°F24.3°C 93% 3.0 mph S4.8 kmh S 6.0 mph9.7 kmh 30.00 in1015.9 mb 0.00 in0.0 mm 0.00 in0.0 mm 0.00 in0.0 mm
07:10 AM 78.3°F25.7°C 75.8°F24.3°C 92% 2.0 mph SSW3.2 kmh SSW 6.0 mph9.7 kmh 30.00 in1015.9 mb 0.00 in0.0 mm 0.00 in0.0 mm 0.00 in0.0 mm
07:15 AM 78.8°F26.0°C 76.3°F24.6°C 92% 2.0 mph S3.2 kmh S 5.0 mph8.0 kmh 30.01 in1016.3 mb 0.00 in0.0 mm 0.00 in0.0 mm 0.00 in0.0 mm
07:20 AM 79.3°F26.3°C 76.4°F24.7°C 91% 2.0 mph SW3.2 kmh SW 5.0 mph8.0 kmh 30.01 in1016.3 mb 0.00 in0.0 mm 0.00 in0.0 mm 0.00 in0.0 mm
07:25 AM 79.6°F26.4°C 76.1°F24.5°C 89% 1.0 mph SW1.6 kmh SW 3.0 mph4.8 kmh 30.01 in1016.3 mb 0.00 in0.0 mm 0.00 in0.0 mm 0.00 in0.0 mm
07:30 AM 80.2°F26.8°C 76.3°F24.6°C 88% 2.0 mph SSW3.2 kmh SSW 7.0 mph11.3 kmh 30.01 in1016.3 mb 0.00 in0.0 mm 0.00 in0.0 mm 0.00 in0.0 mm
07:35 AM 80.5°F26.9°C 76.6°F24.8°C 88% 3.0 mph SSW4.8 kmh SSW 7.0 mph11.3 kmh 30.02 in1016.6 mb 0.00 in0.0 mm 0.00 in0.0 mm 0.00 in0.0 mm
07:40 AM 81.1°F27.3°C 76.9°F24.9°C 87% 2.0 mph SSW3.2 kmh SSW 5.0 mph8.0 kmh 30.02 in1016.6 mb 0.00 in0.0 mm 0.00 in0.0 mm 0.00 in0.0 mm
07:45 AM 81.6°F27.6°C 77.0°F25.0°C 86% 2.0 mph SSW3.2 kmh SSW 5.0 mph8.0 kmh 30.02 in1016.6 mb 0.00 in0.0 mm 0.00 in0.0 mm 0.00 in0.0 mm
07:50 AM 82.1°F27.8°C 77.1°F25.1°C 85% 2.0 mph SW3.2 kmh SW 5.0 mph8.0 kmh 30.02 in1016.6 mb 0.00 in0.0 mm 0.00 in0.0 mm 0.00 in0.0 mm
07:55 AM 82.7°F28.2°C 77.0°F25.0°C 83% 3.0 mph SW4.8 kmh SW 6.0 mph9.7 kmh 30.02 in1016.6 mb 0.00 in0.0 mm 0.00 in0.0 mm 0.00 in0.0 mm
08:00 AM 83.2°F28.4°C 77.5°F25.3°C 83% 3.0 mph SW4.8 kmh SW 8.0 mph12.9 kmh 30.02 in1016.6 mb 0.00 in0.0 mm 0.00 in0.0 mm 0.00 in0.0 mm
08:05 AM 83.8°F28.8°C 77.7°F25.4°C 82% 3.0 mph SW4.8 kmh SW 8.0 mph12.9 kmh 30.02 in1016.6 mb 0.00 in0.0 mm 0.00 in0.0 mm 0.00 in0.0 mm
08:10 AM 84.4°F29.1°C 77.9°F25.5°C 81% 3.0 mph SW4.8 kmh SW 8.0 mph12.9 kmh 30.02 in1016.6 mb 0.00 in0.0 mm 0.00 in0.0 mm 0.00 in0.0 mm
08:15 AM 84.8°F29.3°C 77.9°F25.5°C 80% 3.0 mph SW4.8 kmh SW 8.0 mph12.9 kmh 30.02 in1016.6 mb 0.00 in0.0 mm 0.00 in0.0 mm 0.00 in0.0 mm
08:20 AM 85.2°F29.6°C 77.9°F25.5°C 79% 3.0 mph SSW4.8 kmh SSW 7.0 mph11.3 kmh 30.02 in1016.6 mb 0.00 in0.0 mm 0.00 in0.0 mm 0.00 in0.0 mm
08:25 AM 85.2°F29.6°C 77.9°F25.5°C 79% 3.0 mph SW4.8 kmh SW 8.0 mph12.9 kmh 30.02 in1016.6 mb 0.00 in0.0 mm 0.00 in0.0 mm 0.00 in0.0 mm
08:30 AM 85.5°F29.7°C 78.6°F25.9°C 80% 3.0 mph SW4.8 kmh SW 8.0 mph12.9 kmh 30.02 in1016.6 mb 0.00 in0.0 mm 0.00 in0.0 mm 0.00 in0.0 mm
08:35 AM 86.2°F30.1°C 78.5°F25.8°C 78% 3.0 mph S4.8 kmh S 10.0 mph16.1 kmh 30.02 in1016.6 mb 0.00 in0.0 mm 0.00 in0.0 mm 0.00 in0.0 mm
08:40 AM 86.5°F30.3°C 78.4°F25.8°C 77% 4.0 mph SSW6.4 kmh SSW 10.0 mph16.1 kmh 30.02 in1016.6 mb 0.00 in0.0 mm 0.00 in0.0 mm 0.00 in0.0 mm
08:45 AM 86.9°F30.5°C 78.7°F25.9°C 77% 4.0 mph SSW6.4 kmh SSW 9.0 mph14.5 kmh 30.02 in1016.6 mb 0.00 in0.0 mm 0.00 in0.0 mm 0.00 in0.0 mm
08:50 AM 87.1°F30.6°C 79.4°F26.3°C 78% 4.0 mph SSW6.4 kmh SSW 10.0 mph16.1 kmh 30.01 in1016.3 mb 0.00 in0.0 mm 0.00 in0.0 mm 0.00 in0.0 mm
08:55 AM 87.7°F30.9°C 78.8°F26.0°C 75% 3.0 mph SW4.8 kmh SW 10.0 mph16.1 kmh 30.01 in1016.3 mb 0.00 in0.0 mm 0.00 in0.0 mm 0.00 in0.0 mm
09:00 AM 87.9°F31.1°C 78.2°F25.7°C 73% 3.0 mph SW4.8 kmh SW 9.0 mph14.5 kmh 30.01 in1016.3 mb 0.00 in0.0 mm 0.00 in0.0 mm 0.00 in0.0 mm
09:05 AM 87.8°F31.0°C 77.6°F25.3°C 72% 4.0 mph SW6.4 kmh SW 9.0 mph14.5 kmh 30.01 in1016.3 mb 0.00 in0.0 mm 0.00 in0.0 mm 0.00 in0.0 mm
09:10 AM 88.0°F31.1°C 78.3°F25.7°C 73% 3.0 mph SW4.8 kmh SW 10.0 mph16.1 kmh 30.02 in1016.6 mb 0.00 in0.0 mm 0.00 in0.0 mm 0.00 in0.0 mm
09:15 AM 88.0°F31.1°C 78.3°F25.7°C 73% 3.0 mph WSW4.8 kmh WSW 10.0 mph16.1 kmh 30.02 in1016.6 mb 0.00 in0.0 mm 0.00 in0.0 mm 0.00 in0.0 mm
09:20 AM 88.1°F31.2°C 77.1°F25.1°C 70% 3.0 mph WSW4.8 kmh WSW 9.0 mph14.5 kmh 30.02 in1016.6 mb 0.00 in0.0 mm 0.00 in0.0 mm 0.00 in0.0 mm
09:25 AM 88.4°F31.3°C 77.4°F25.2°C 70% 3.0 mph SW4.8 kmh SW 7.0 mph11.3 kmh 30.02 in1016.6 mb 0.00 in0.0 mm 0.00 in0.0 mm 0.00 in0.0 mm
09:30 AM 88.9°F31.6°C 78.3°F25.7°C 71% 3.0 mph SW4.8 kmh SW 8.0 mph12.9 kmh 30.01 in1016.3 mb 0.00 in0.0 mm 0.00 in0.0 mm 0.00 in0.0 mm
09:35 AM 89.5°F31.9°C 78.0°F25.6°C 69% 4.0 mph SSW6.4 kmh SSW 10.0 mph16.1 kmh 30.01 in1016.3 mb 0.00 in0.0 mm 0.00 in0.0 mm 0.00 in0.0 mm
09:40 AM 89.3°F31.8°C 76.9°F24.9°C 67% 4.0 mph SSW6.4 kmh SSW 10.0 mph16.1 kmh 30.01 in1016.3 mb 0.00 in0.0 mm 0.00 in0.0 mm 0.00 in0.0 mm
09:45 AM 88.8°F31.6°C 76.0°F24.4°C 66% 4.0 mph SSW6.4 kmh SSW 11.0 mph17.7 kmh 30.01 in1016.3 mb 0.00 in0.0 mm 0.00 in0.0 mm 0.00 in0.0 mm
09:50 AM 88.3°F31.3°C 75.9°F24.4°C 67% 5.0 mph S8.0 kmh S 11.0 mph17.7 kmh 30.01 in1016.3 mb 0.00 in0.0 mm 0.00 in0.0 mm 0.00 in0.0 mm
09:55 AM 88.6°F31.4°C 78.0°F25.6°C 71% 5.0 mph SSW8.0 kmh SSW 11.0 mph17.7 kmh 30.02 in1016.6 mb 0.00 in0.0 mm 0.00 in0.0 mm 0.00 in0.0 mm
10:00 AM 86.9°F30.5°C 74.2°F23.4°C 66% 5.0 mph WSW8.0 kmh WSW 11.0 mph17.7 kmh 30.02 in1016.6 mb 0.00 in0.0 mm 0.00 in0.0 mm 0.00 in0.0 mm
10:05 AM 84.7°F29.3°C 73.8°F23.2°C 70% 5.0 mph W8.0 kmh W 15.0 mph24.1 kmh 30.02 in1016.6 mb 0.00 in0.0 mm 0.00 in0.0 mm 0.00 in0.0 mm
10:10 AM 83.1°F28.4°C 74.4°F23.6°C 75% 4.0 mph W6.4 kmh W 15.0 mph24.1 kmh 30.03 in1016.9 mb 0.01 in0.3 mm 0.12 in3.0 mm 0.01 in0.3 mm
10:15 AM 82.0°F27.8°C 75.2°F24.0°C 80% 2.0 mph WSW3.2 kmh WSW 7.0 mph11.3 kmh 30.03 in1016.9 mb 0.02 in0.5 mm 0.12 in3.0 mm 0.02 in0.5 mm
10:20 AM 80.7°F27.1°C 74.3°F23.5°C 81% 3.0 mph S4.8 kmh S 10.0 mph16.1 kmh 30.03 in1016.9 mb 0.04 in1.0 mm 0.24 in6.1 mm 0.04 in1.0 mm
10:25 AM 79.6°F26.4°C 73.3°F22.9°C 81% 5.0 mph S8.0 kmh S 10.0 mph16.1 kmh 30.03 in1016.9 mb 0.04 in1.0 mm 0.00 in0.0 mm 0.04 in1.0 mm
10:30 AM 79.1°F26.2°C 74.2°F23.4°C 85% 4.0 mph S6.4 kmh S 8.0 mph12.9 kmh 30.03 in1016.9 mb 0.04 in1.0 mm 0.00 in0.0 mm 0.04 in1.0 mm
10:35 AM 78.8°F26.0°C 73.6°F23.1°C 84% 3.0 mph S4.8 kmh S 7.0 mph11.3 kmh 30.03 in1016.9 mb 0.04 in1.0 mm 0.00 in0.0 mm 0.04 in1.0 mm
10:40 AM 78.8°F26.0°C 73.9°F23.3°C 85% 2.0 mph S3.2 kmh S 5.0 mph8.0 kmh 30.02 in1016.6 mb 0.04 in1.0 mm 0.00 in0.0 mm 0.04 in1.0 mm
10:45 AM 79.3°F26.3°C 74.7°F23.7°C 86% 2.0 mph S3.2 kmh S 4.0 mph6.4 kmh 30.02 in1016.6 mb 0.04 in1.0 mm 0.00 in0.0 mm 0.04 in1.0 mm
10:50 AM 80.4°F26.9°C 75.5°F24.2°C 85% 2.0 mph SW3.2 kmh SW 5.0 mph8.0 kmh 30.02 in1016.6 mb 0.04 in1.0 mm 0.00 in0.0 mm 0.04 in1.0 mm
10:55 AM 81.6°F27.6°C 76.3°F24.6°C 84% 2.0 mph WNW3.2 kmh WNW 8.0 mph12.9 kmh 30.02 in1016.6 mb 0.04 in1.0 mm 0.00 in0.0 mm 0.04 in1.0 mm
11:00 AM 82.7°F28.2°C 76.3°F24.6°C 81% 3.0 mph NW4.8 kmh NW 9.0 mph14.5 kmh 30.02 in1016.6 mb 0.04 in1.0 mm 0.00 in0.0 mm 0.04 in1.0 mm
11:05 AM 83.9°F28.8°C 77.8°F25.4°C 82% 3.0 mph NW4.8 kmh NW 9.0 mph14.5 kmh 30.03 in1016.9 mb 0.03 in0.8 mm 0.00 in0.0 mm 0.04 in1.0 mm
11:10 AM 85.1°F29.5°C 78.6°F25.9°C 81% 2.0 mph WNW3.2 kmh WNW 9.0 mph14.5 kmh 30.02 in1016.6 mb 0.03 in0.8 mm 0.00 in0.0 mm 0.04 in1.0 mm
11:15 AM 86.1°F30.1°C 78.8°F26.0°C 79% 3.0 mph NW4.8 kmh NW 9.0 mph14.5 kmh 30.02 in1016.6 mb 0.02 in0.5 mm 0.00 in0.0 mm 0.04 in1.0 mm
11:20 AM 87.2°F30.7°C 78.7°F25.9°C 76% 4.0 mph NNW6.4 kmh NNW 8.0 mph12.9 kmh 30.02 in1016.6 mb 0.00 in0.0 mm 0.00 in0.0 mm 0.04 in1.0 mm
11:25 AM 87.5°F30.8°C 78.2°F25.7°C 74% 4.0 mph NNW6.4 kmh NNW 10.0 mph16.1 kmh 30.02 in1016.6 mb 0.00 in0.0 mm 0.00 in0.0 mm 0.04 in1.0 mm
11:30 AM 87.1°F30.6°C 76.5°F24.7°C 71% 4.0 mph NNW6.4 kmh NNW 10.0 mph16.1 kmh 30.01 in1016.3 mb 0.00 in0.0 mm 0.00 in0.0 mm 0.04 in1.0 mm
11:35 AM 86.0°F30.0°C 75.1°F23.9°C 70% 4.0 mph NNW6.4 kmh NNW 8.0 mph12.9 kmh 30.02 in1016.6 mb 0.00 in0.0 mm 0.00 in0.0 mm 0.04 in1.0 mm
11:40 AM 84.2°F29.0°C 75.4°F24.1°C 75% 5.0 mph NW8.0 kmh NW 16.0 mph25.7 kmh 30.03 in1016.9 mb 0.05 in1.3 mm 0.60 in15.2 mm 0.09 in2.3 mm
11:45 AM 81.3°F27.4°C 75.6°F24.2°C 83% 7.0 mph NW11.3 kmh NW 16.0 mph25.7 kmh 30.03 in1016.9 mb 0.23 in5.8 mm 2.16 in54.9 mm 0.27 in6.9 mm
11:50 AM 79.8°F26.6°C 75.2°F24.0°C 86% 6.0 mph NW9.7 kmh NW 14.0 mph22.5 kmh 30.01 in1016.3 mb 0.27 in6.9 mm 0.48 in12.2 mm 0.31 in7.9 mm
11:55 AM 79.9°F26.6°C 78.3°F25.7°C 95% 3.0 mph N4.8 kmh N 8.0 mph12.9 kmh 30.02 in1016.6 mb 0.27 in6.9 mm 0.00 in0.0 mm 0.31 in7.9 mm
12:00 PM 80.6°F27.0°C 78.7°F25.9°C 94% 2.0 mph NNW3.2 kmh NNW 5.0 mph8.0 kmh 30.01 in1016.3 mb 0.27 in6.9 mm 0.00 in0.0 mm 0.31 in7.9 mm
12:05 PM 80.9°F27.2°C 78.4°F25.8°C 92% 2.0 mph NW3.2 kmh NW 5.0 mph8.0 kmh 30.01 in1016.3 mb 0.27 in6.9 mm 0.00 in0.0 mm 0.31 in7.9 mm
12:10 PM 81.4°F27.4°C 78.5°F25.8°C 91% 3.0 mph NW4.8 kmh NW 5.0 mph8.0 kmh 30.01 in1016.3 mb 0.27 in6.9 mm 0.00 in0.0 mm 0.31 in7.9 mm
12:15 PM 81.6°F27.6°C 78.0°F25.6°C 89% 3.0 mph NW4.8 kmh NW 8.0 mph12.9 kmh 30.01 in1016.3 mb 0.27 in6.9 mm 0.00 in0.0 mm 0.31 in7.9 mm
12:20 PM 81.6°F27.6°C 78.0°F25.6°C 89% 2.0 mph NW3.2 kmh NW 8.0 mph12.9 kmh 30.03 in1016.9 mb 0.27 in6.9 mm 0.00 in0.0 mm 0.31 in7.9 mm
12:25 PM 81.4°F27.4°C 76.8°F24.9°C 86% 2.0 mph N3.2 kmh N 4.0 mph6.4 kmh 30.03 in1016.9 mb 0.27 in6.9 mm 0.00 in0.0 mm 0.31 in7.9 mm
12:30 PM 81.0°F27.2°C 77.1°F25.1°C 88% 2.0 mph NNE3.2 kmh NNE 9.0 mph14.5 kmh 30.03 in1016.9 mb 0.27 in6.9 mm 0.00 in0.0 mm 0.31 in7.9 mm
12:35 PM 79.5°F26.4°C 74.6°F23.7°C 85% 4.0 mph ESE6.4 kmh ESE 14.0 mph22.5 kmh 30.04 in1017.3 mb 0.30 in7.6 mm 0.36 in9.1 mm 0.34 in8.6 mm
12:40 PM 77.5°F25.3°C 73.3°F22.9°C 87% 8.0 mph SE12.9 kmh SE 19.0 mph30.6 kmh 30.05 in1017.6 mb 0.48 in12.2 mm 2.16 in54.9 mm 0.61 in15.5 mm
12:45 PM 76.2°F24.6°C 73.1°F22.8°C 90% 8.0 mph SE12.9 kmh SE 19.0 mph30.6 kmh 30.04 in1017.3 mb 0.59 in15.0 mm 1.32 in33.5 mm 0.88 in22.4 mm
12:50 PM 75.3°F24.1°C 72.8°F22.7°C 92% 6.0 mph ESE9.7 kmh ESE 13.0 mph20.9 kmh 30.03 in1016.9 mb 0.67 in17.0 mm 0.96 in24.4 mm 0.98 in24.9 mm
12:55 PM 75.1°F23.9°C 73.6°F23.1°C 95% 4.0 mph ESE6.4 kmh ESE 10.0 mph16.1 kmh 30.03 in1016.9 mb 0.68 in17.3 mm 0.12 in3.0 mm 0.99 in25.1 mm
01:00 PM 75.9°F24.4°C 75.0°F23.9°C 97% 4.0 mph SE6.4 kmh SE 8.0 mph12.9 kmh 30.02 in1016.6 mb 0.68 in17.3 mm 0.00 in0.0 mm 0.99 in25.1 mm
01:05 PM 77.5°F25.3°C 76.9°F24.9°C 98% 4.0 mph SE6.4 kmh SE 9.0 mph14.5 kmh 30.02 in1016.6 mb 0.68 in17.3 mm 0.00 in0.0 mm 0.99 in25.1 mm
01:10 PM 77.6°F25.3°C 76.4°F24.7°C 96% 4.0 mph SE6.4 kmh SE 9.0 mph14.5 kmh 30.02 in1016.6 mb 0.68 in17.3 mm 0.00 in0.0 mm 0.99 in25.1 mm
01:15 PM 77.4°F25.2°C 75.9°F24.4°C 95% 4.0 mph ESE6.4 kmh ESE 9.0 mph14.5 kmh 30.02 in1016.6 mb 0.68 in17.3 mm 0.00 in0.0 mm 0.99 in25.1 mm
01:20 PM 77.3°F25.2°C 75.1°F23.9°C 93% 3.0 mph ESE4.8 kmh ESE 9.0 mph14.5 kmh 30.02 in1016.6 mb 0.68 in17.3 mm 0.00 in0.0 mm 0.99 in25.1 mm
01:25 PM 77.6°F25.3°C 76.1°F24.5°C 95% 2.0 mph ESE3.2 kmh ESE 4.0 mph6.4 kmh 30.03 in1016.9 mb 0.68 in17.3 mm 0.00 in0.0 mm 0.99 in25.1 mm
01:30 PM 78.5°F25.8°C 77.3°F25.2°C 96% 2.0 mph E3.2 kmh E 7.0 mph11.3 kmh 30.02 in1016.6 mb 0.67 in17.0 mm 0.00 in0.0 mm 0.99 in25.1 mm
01:35 PM 78.9°F26.1°C 76.7°F24.8°C 93% 3.0 mph E4.8 kmh E 7.0 mph11.3 kmh 30.02 in1016.6 mb 0.65 in16.5 mm 0.00 in0.0 mm 0.99 in25.1 mm
01:40 PM 79.1°F26.2°C 76.9°F24.9°C 93% 3.0 mph ENE4.8 kmh ENE 7.0 mph11.3 kmh 30.02 in1016.6 mb 0.32 in8.1 mm 0.00 in0.0 mm 0.99 in25.1 mm
01:45 PM 79.2°F26.2°C 77.0°F25.0°C 93% 2.0 mph ENE3.2 kmh ENE 5.0 mph8.0 kmh 30.03 in1016.9 mb 0.06 in1.5 mm 0.00 in0.0 mm 0.99 in25.1 mm
01:50 PM 79.1°F26.2°C 76.6°F24.8°C 92% 2.0 mph E3.2 kmh E 5.0 mph8.0 kmh 30.02 in1016.6 mb 0.02 in0.5 mm 0.00 in0.0 mm 1.00 in25.4 mm
01:55 PM 78.9°F26.1°C 76.4°F24.7°C 92% 2.0 mph E3.2 kmh E 5.0 mph8.0 kmh 30.03 in1016.9 mb 0.01 in0.3 mm 0.00 in0.0 mm 1.00 in25.4 mm
02:00 PM 78.7°F25.9°C 76.2°F24.6°C 92% 2.0 mph ESE3.2 kmh ESE 5.0 mph8.0 kmh 30.03 in1016.9 mb 0.01 in0.3 mm 0.00 in0.0 mm 1.00 in25.4 mm
02:05 PM 78.7°F25.9°C 76.5°F24.7°C 93% 2.0 mph ESE3.2 kmh ESE 7.0 mph11.3 kmh 30.03 in1016.9 mb 0.01 in0.3 mm 0.00 in0.0 mm 1.00 in25.4 mm
02:10 PM 78.6°F25.9°C 76.7°F24.8°C 94% 3.0 mph SE4.8 kmh SE 7.0 mph11.3 kmh 30.03 in1016.9 mb 0.01 in0.3 mm 0.00 in0.0 mm 1.00 in25.4 mm
02:15 PM 78.4°F25.8°C 75.9°F24.4°C 92% 4.0 mph ESE6.4 kmh ESE 8.0 mph12.9 kmh 30.03 in1016.9 mb 0.01 in0.3 mm 0.00 in0.0 mm 1.00 in25.4 mm
02:20 PM 78.0°F25.6°C 75.5°F24.2°C 92% 4.0 mph E6.4 kmh E 9.0 mph14.5 kmh 30.03 in1016.9 mb 0.01 in0.3 mm 0.00 in0.0 mm 1.00 in25.4 mm
02:25 PM 77.6°F25.3°C 75.1°F23.9°C 92% 3.0 mph ENE4.8 kmh ENE 9.0 mph14.5 kmh 30.04 in1017.3 mb 0.01 in0.3 mm 0.00 in0.0 mm 1.00 in25.4 mm
02:30 PM 77.1°F25.1°C 74.9°F23.8°C 93% 3.0 mph S4.8 kmh S 6.0 mph9.7 kmh 30.04 in1017.3 mb 0.01 in0.3 mm 0.00 in0.0 mm 1.00 in25.4 mm
02:35 PM 76.8°F24.9°C 74.6°F23.7°C 93% 2.0 mph SW3.2 kmh SW 5.0 mph8.0 kmh 30.04 in1017.3 mb 0.03 in0.8 mm 0.24 in6.1 mm 1.02 in25.9 mm
02:40 PM 76.4°F24.7°C 74.2°F23.4°C 93% 2.0 mph W3.2 kmh W 8.0 mph12.9 kmh 30.04 in1017.3 mb 0.12 in3.0 mm 1.08 in27.4 mm 1.11 in28.2 mm
02:45 PM 76.0°F24.4°C 73.8°F23.2°C 93% 2.0 mph NW3.2 kmh NW 8.0 mph12.9 kmh 30.04 in1017.3 mb 0.18 in4.6 mm 0.72 in18.3 mm 1.17 in29.7 mm
02:50 PM 75.6°F24.2°C 73.4°F23.0°C 93% 3.0 mph NW4.8 kmh NW 10.0 mph16.1 kmh 30.04 in1017.3 mb 0.18 in4.6 mm 0.00 in0.0 mm 1.18 in30.0 mm
02:55 PM 75.5°F24.2°C 73.7°F23.2°C 94% 5.0 mph NW8.0 kmh NW 10.0 mph16.1 kmh 30.03 in1016.9 mb 0.20 in5.1 mm 0.24 in6.1 mm 1.20 in30.5 mm
03:00 PM 75.7°F24.3°C 74.5°F23.6°C 96% 4.0 mph NNW6.4 kmh NNW 10.0 mph16.1 kmh 30.02 in1016.6 mb 0.22 in5.6 mm 0.02 in0.5 mm 1.22 in31.0 mm
03:05 PM 76.2°F24.6°C 75.0°F23.9°C 96% 3.0 mph N4.8 kmh N 8.0 mph12.9 kmh 30.02 in1016.6 mb 0.22 in5.6 mm 0.00 in0.0 mm 1.22 in31.0 mm
03:10 PM 76.4°F24.7°C 75.2°F24.0°C 96% 4.0 mph N6.4 kmh N 9.0 mph14.5 kmh 30.02 in1016.6 mb 0.22 in5.6 mm 0.00 in0.0 mm 1.22 in31.0 mm
03:15 PM 76.7°F24.8°C 75.2°F24.0°C 95% 4.0 mph N6.4 kmh N 9.0 mph14.5 kmh 30.03 in1016.9 mb 0.22 in5.6 mm 0.00 in0.0 mm 1.22 in31.0 mm
03:20 PM 76.9°F24.9°C 75.4°F24.1°C 95% 4.0 mph N6.4 kmh N 10.0 mph16.1 kmh 30.03 in1016.9 mb 0.22 in5.6 mm 0.00 in0.0 mm 1.22 in31.0 mm
03:25 PM 76.9°F24.9°C 74.7°F23.7°C 93% 4.0 mph N6.4 kmh N 11.0 mph17.7 kmh 30.02 in1016.6 mb 0.22 in5.6 mm 0.00 in0.0 mm 1.22 in31.0 mm
03:30 PM 76.9°F24.9°C 74.7°F23.7°C 93% 4.0 mph N6.4 kmh N 11.0 mph17.7 kmh 30.02 in1016.6 mb 0.22 in5.6 mm 0.00 in0.0 mm 1.22 in31.0 mm
03:35 PM 76.9°F24.9°C 74.7°F23.7°C 93% 4.0 mph N6.4 kmh N 10.0 mph16.1 kmh 30.02 in1016.6 mb 0.19 in4.8 mm 0.00 in0.0 mm 1.22 in31.0 mm
03:40 PM 77.1°F25.1°C 75.2°F24.0°C 94% 4.0 mph N6.4 kmh N 10.0 mph16.1 kmh 30.02 in1016.6 mb 0.08 in2.0 mm 0.00 in0.0 mm 1.22 in31.0 mm
03:45 PM 77.3°F25.2°C 74.5°F23.6°C 91% 4.0 mph N6.4 kmh N 9.0 mph14.5 kmh 30.02 in1016.6 mb 0.05 in1.3 mm 0.00 in0.0 mm 1.22 in31.0 mm
03:50 PM 76.9°F24.9°C 73.7°F23.2°C 90% 4.0 mph N6.4 kmh N 9.0 mph14.5 kmh 30.02 in1016.6 mb 0.04 in1.0 mm 0.00 in0.0 mm 1.22 in31.0 mm
03:55 PM 76.6°F24.8°C 73.8°F23.2°C 91% 4.0 mph N6.4 kmh N 9.0 mph14.5 kmh 30.02 in1016.6 mb 0.01 in0.3 mm 0.00 in0.0 mm 1.22 in31.0 mm
04:00 PM 76.3°F24.6°C 73.5°F23.1°C 91% 4.0 mph NNW6.4 kmh NNW 9.0 mph14.5 kmh 30.02 in1016.6 mb 0.00 in0.0 mm 0.00 in0.0 mm 1.22 in31.0 mm
04:05 PM 76.0°F24.4°C 73.5°F23.1°C 92% 4.0 mph NNW6.4 kmh NNW 9.0 mph14.5 kmh 30.02 in1016.6 mb 0.00 in0.0 mm 0.00 in0.0 mm 1.22 in31.0 mm
04:10 PM 75.9°F24.4°C 73.4°F23.0°C 92% 2.0 mph N3.2 kmh N 6.0 mph9.7 kmh 30.02 in1016.6 mb 0.00 in0.0 mm 0.00 in0.0 mm 1.22 in31.0 mm
04:15 PM 75.7°F24.3°C 73.5°F23.1°C 93% 1.0 mph N1.6 kmh N 3.0 mph4.8 kmh 30.02 in1016.6 mb 0.00 in0.0 mm 0.00 in0.0 mm 1.22 in31.0 mm
04:20 PM 75.6°F24.2°C 73.1°F22.8°C 92% 1.0 mph N1.6 kmh N 3.0 mph4.8 kmh 30.02 in1016.6 mb 0.00 in0.0 mm 0.00 in0.0 mm 1.22 in31.0 mm
04:25 PM 75.5°F24.2°C 73.3°F22.9°C 93% 1.0 mph N1.6 kmh N 3.0 mph4.8 kmh 30.02 in1016.6 mb 0.00 in0.0 mm 0.00 in0.0 mm 1.22 in31.0 mm
04:30 PM 75.3°F24.1°C 73.5°F23.1°C 94% 1.0 mph N1.6 kmh N 3.0 mph4.8 kmh 30.03 in1016.9 mb 0.00 in0.0 mm 0.00 in0.0 mm 1.22 in31.0 mm
04:35 PM 75.2°F24.0°C 73.4°F23.0°C 94% Calm Calm 2.0 mph3.2 kmh 30.03 in1016.9 mb 0.00 in0.0 mm 0.00 in0.0 mm 1.22 in31.0 mm
04:40 PM 75.2°F24.0°C 73.4°F23.0°C 94% Calm Calm 2.0 mph3.2 kmh 30.02 in1016.6 mb 0.00 in0.0 mm 0.00 in0.0 mm 1.22 in31.0 mm
04:45 PM 75.2°F24.0°C 73.7°F23.2°C 95% Calm Calm 1.0 mph1.6 kmh 30.02 in1016.6 mb 0.00 in0.0 mm 0.00 in0.0 mm 1.22 in31.0 mm
04:50 PM 75.2°F24.0°C 73.7°F23.2°C 95% Calm Calm 1.0 mph1.6 kmh 30.03 in1016.9 mb 0.01 in0.3 mm 0.12 in3.0 mm 1.23 in31.2 mm
04:55 PM 75.2°F24.0°C 74.0°F23.3°C 96% Calm Calm 1.0 mph1.6 kmh 30.02 in1016.6 mb 0.02 in0.5 mm 0.12 in3.0 mm 1.24 in31.5 mm
05:00 PM 75.2°F24.0°C 73.7°F23.2°C 95% Calm Calm 1.0 mph1.6 kmh 30.02 in1016.6 mb 0.04 in1.0 mm 0.02 in0.5 mm 1.26 in32.0 mm
05:05 PM 75.1°F23.9°C 73.6°F23.1°C 95% Calm Calm 2.0 mph3.2 kmh 30.02 in1016.6 mb 0.05 in1.3 mm 0.12 in3.0 mm 1.27 in32.3 mm
05:10 PM 75.1°F23.9°C 73.9°F23.3°C 96% 1.0 mph N1.6 kmh N 2.0 mph3.2 kmh 30.02 in1016.6 mb 0.06 in1.5 mm 0.12 in3.0 mm 1.28 in32.5 mm
05:15 PM 75.0°F23.9°C 73.8°F23.2°C 96% 1.0 mph N1.6 kmh N 2.0 mph3.2 kmh 30.02 in1016.6 mb 0.07 in1.8 mm 0.12 in3.0 mm 1.29 in32.8 mm
05:20 PM 75.0°F23.9°C 73.8°F23.2°C 96% 1.0 mph N1.6 kmh N 2.0 mph3.2 kmh 30.02 in1016.6 mb 0.08 in2.0 mm 0.12 in3.0 mm 1.30 in33.0 mm
05:25 PM 75.0°F23.9°C 73.8°F23.2°C 96% 2.0 mph NE3.2 kmh NE 5.0 mph8.0 kmh 30.01 in1016.3 mb 0.08 in2.0 mm 0.00 in0.0 mm 1.30 in33.0 mm
05:30 PM 75.0°F23.9°C 73.8°F23.2°C 96% 2.0 mph E3.2 kmh E 5.0 mph8.0 kmh 30.02 in1016.6 mb 0.08 in2.0 mm 0.00 in0.0 mm 1.30 in33.0 mm
05:35 PM 75.0°F23.9°C 73.8°F23.2°C 96% 2.0 mph ESE3.2 kmh ESE 4.0 mph6.4 kmh 30.02 in1016.6 mb 0.09 in2.3 mm 0.12 in3.0 mm 1.31 in33.3 mm
05:40 PM 75.0°F23.9°C 73.8°F23.2°C 96% 2.0 mph ESE3.2 kmh ESE 6.0 mph9.7 kmh 30.02 in1016.6 mb 0.09 in2.3 mm 0.00 in0.0 mm 1.31 in33.3 mm
05:45 PM 75.0°F23.9°C 73.8°F23.2°C 96% 2.0 mph ESE3.2 kmh ESE 6.0 mph9.7 kmh 30.02 in1016.6 mb 0.09 in2.3 mm 0.00 in0.0 mm 1.31 in33.3 mm
05:50 PM 75.0°F23.9°C 73.8°F23.2°C 96% 2.0 mph ESE3.2 kmh ESE 6.0 mph9.7 kmh 30.02 in1016.6 mb 0.08 in2.0 mm 0.00 in0.0 mm 1.31 in33.3 mm
05:55 PM 75.0°F23.9°C 73.8°F23.2°C 96% 2.0 mph ESE3.2 kmh ESE 6.0 mph9.7 kmh 30.02 in1016.6 mb 0.07 in1.8 mm 0.00 in0.0 mm 1.31 in33.3 mm
06:00 PM 75.0°F23.9°C 73.8°F23.2°C 96% 3.0 mph ESE4.8 kmh ESE 6.0 mph9.7 kmh 30.02 in1016.6 mb 0.05 in1.3 mm 0.00 in0.0 mm 1.31 in33.3 mm
06:05 PM 74.9°F23.8°C 73.7°F23.2°C 96% 3.0 mph ESE4.8 kmh ESE 6.0 mph9.7 kmh 30.02 in1016.6 mb 0.04 in1.0 mm 0.00 in0.0 mm 1.31 in33.3 mm
06:10 PM 74.9°F23.8°C 73.7°F23.2°C 96% 3.0 mph SE4.8 kmh SE 6.0 mph9.7 kmh 30.02 in1016.6 mb 0.03 in0.8 mm 0.00 in0.0 mm 1.31 in33.3 mm
06:15 PM 74.9°F23.8°C 73.7°F23.2°C 96% 3.0 mph SE4.8 kmh SE 6.0 mph9.7 kmh 30.02 in1016.6 mb 0.01 in0.3 mm 0.00 in0.0 mm 1.31 in33.3 mm
06:20 PM 74.9°F23.8°C 73.7°F23.2°C 96% 3.0 mph SE4.8 kmh SE 7.0 mph11.3 kmh 30.03 in1016.9 mb 0.01 in0.3 mm 0.00 in0.0 mm 1.31 in33.3 mm
06:25 PM 74.9°F23.8°C 73.7°F23.2°C 96% 3.0 mph SE4.8 kmh SE 7.0 mph11.3 kmh 30.02 in1016.6 mb 0.01 in0.3 mm 0.00 in0.0 mm 1.31 in33.3 mm
06:30 PM 74.8°F23.8°C 73.6°F23.1°C 96% 3.0 mph SE4.8 kmh SE 8.0 mph12.9 kmh 30.02 in1016.6 mb 0.01 in0.3 mm 0.00 in0.0 mm 1.31 in33.3 mm
06:35 PM 74.7°F23.7°C 73.2°F22.9°C 95% 4.0 mph SE6.4 kmh SE 9.0 mph14.5 kmh 30.02 in1016.6 mb 0.00 in0.0 mm 0.00 in0.0 mm 1.31 in33.3 mm
06:40 PM 74.6°F23.7°C 73.4°F23.0°C 96% 4.0 mph SE6.4 kmh SE 9.0 mph14.5 kmh 30.02 in1016.6 mb 0.00 in0.0 mm 0.00 in0.0 mm 1.31 in33.3 mm
06:45 PM 74.5°F23.6°C 73.3°F22.9°C 96% 3.0 mph SE4.8 kmh SE 7.0 mph11.3 kmh 30.02 in1016.6 mb 0.00 in0.0 mm 0.00 in0.0 mm 1.31 in33.3 mm
06:50 PM 74.4°F23.6°C 73.2°F22.9°C 96% 2.0 mph SE3.2 kmh SE 5.0 mph8.0 kmh 30.03 in1016.9 mb 0.00 in0.0 mm 0.00 in0.0 mm 1.31 in33.3 mm
06:55 PM 74.3°F23.5°C 73.1°F22.8°C 96% 2.0 mph SE3.2 kmh SE 5.0 mph8.0 kmh 30.03 in1016.9 mb 0.00 in0.0 mm 0.00 in0.0 mm 1.31 in33.3 mm
07:00 PM 74.1°F23.4°C 72.9°F22.7°C 96% 3.0 mph SE4.8 kmh SE 8.0 mph12.9 kmh 30.04 in1017.3 mb 0.00 in0.0 mm 0.00 in0.0 mm 1.31 in33.3 mm
07:05 PM 74.0°F23.3°C 72.8°F22.7°C 96% 3.0 mph SE4.8 kmh SE 8.0 mph12.9 kmh 30.05 in1017.6 mb 0.00 in0.0 mm 0.00 in0.0 mm 1.31 in33.3 mm
07:10 PM 73.9°F23.3°C 72.7°F22.6°C 96% 2.0 mph SE3.2 kmh SE 7.0 mph11.3 kmh 30.05 in1017.6 mb 0.00 in0.0 mm 0.00 in0.0 mm 1.31 in33.3 mm
07:15 PM 73.9°F23.3°C 72.7°F22.6°C 96% 2.0 mph SE3.2 kmh SE 7.0 mph11.3 kmh 30.05 in1017.6 mb 0.00 in0.0 mm 0.00 in0.0 mm 1.31 in33.3 mm
07:20 PM 73.8°F23.2°C 72.6°F22.6°C 96% 2.0 mph SE3.2 kmh SE 5.0 mph8.0 kmh 30.06 in1017.9 mb 0.00 in0.0 mm 0.00 in0.0 mm 1.31 in33.3 mm
07:25 PM 73.7°F23.2°C 72.5°F22.5°C 96% 2.0 mph SE3.2 kmh SE 4.0 mph6.4 kmh 30.07 in1018.3 mb 0.00 in0.0 mm 0.00 in0.0 mm 1.31 in33.3 mm
07:30 PM 73.6°F23.1°C 72.4°F22.4°C 96% 2.0 mph SE3.2 kmh SE 4.0 mph6.4 kmh 30.06 in1017.9 mb 0.00 in0.0 mm 0.00 in0.0 mm 1.31 in33.3 mm
07:35 PM 73.6°F23.1°C 72.4°F22.4°C 96% 3.0 mph SE4.8 kmh SE 4.0 mph6.4 kmh 30.07 in1018.3 mb 0.00 in0.0 mm 0.00 in0.0 mm 1.31 in33.3 mm
07:40 PM 73.6°F23.1°C 72.4°F22.4°C 96% 3.0 mph SE4.8 kmh SE 4.0 mph6.4 kmh 30.07 in1018.3 mb 0.00 in0.0 mm 0.00 in0.0 mm 1.31 in33.3 mm
07:45 PM 73.6°F23.1°C 72.7°F22.6°C 97% 2.0 mph SE3.2 kmh SE 4.0 mph6.4 kmh 30.07 in1018.3 mb 0.00 in0.0 mm 0.00 in0.0 mm 1.31 in33.3 mm
07:50 PM 73.6°F23.1°C 72.7°F22.6°C 97% 2.0 mph SE3.2 kmh SE 5.0 mph8.0 kmh 30.07 in1018.3 mb 0.00 in0.0 mm 0.00 in0.0 mm 1.31 in33.3 mm
07:55 PM 73.7°F23.2°C 72.8°F22.7°C 97% 3.0 mph SE4.8 kmh SE 5.0 mph8.0 kmh 30.07 in1018.3 mb 0.00 in0.0 mm 0.00 in0.0 mm 1.31 in33.3 mm
08:00 PM 73.7°F23.2°C 72.8°F22.7°C 97% 3.0 mph SE4.8 kmh SE 5.0 mph8.0 kmh 30.07 in1018.3 mb 0.00 in0.0 mm 0.00 in0.0 mm 1.31 in33.3 mm
08:05 PM 73.8°F23.2°C 72.9°F22.7°C 97% 2.0 mph SE3.2 kmh SE 5.0 mph8.0 kmh 30.07 in1018.3 mb 0.00 in0.0 mm 0.00 in0.0 mm 1.31 in33.3 mm
08:10 PM 73.8°F23.2°C 72.9°F22.7°C 97% 2.0 mph SE3.2 kmh SE 4.0 mph6.4 kmh 30.07 in1018.3 mb 0.00 in0.0 mm 0.00 in0.0 mm 1.31 in33.3 mm
08:15 PM 73.8°F23.2°C 72.9°F22.7°C 97% 1.0 mph SE1.6 kmh SE 3.0 mph4.8 kmh 30.07 in1018.3 mb 0.00 in0.0 mm 0.00 in0.0 mm 1.31 in33.3 mm
08:20 PM 73.8°F23.2°C 72.9°F22.7°C 97% 2.0 mph SE3.2 kmh SE 3.0 mph4.8 kmh 30.07 in1018.3 mb 0.00 in0.0 mm 0.00 in0.0 mm 1.31 in33.3 mm
08:25 PM 73.8°F23.2°C 72.9°F22.7°C 97% 2.0 mph SE3.2 kmh SE 4.0 mph6.4 kmh 30.07 in1018.3 mb 0.00 in0.0 mm 0.00 in0.0 mm 1.31 in33.3 mm
08:30 PM 73.9°F23.3°C 73.0°F22.8°C 97% 2.0 mph SE3.2 kmh SE 4.0 mph6.4 kmh 30.07 in1018.3 mb 0.00 in0.0 mm 0.00 in0.0 mm 1.31 in33.3 mm
08:35 PM 73.9°F23.3°C 73.0°F22.8°C 97% 2.0 mph SE3.2 kmh SE 4.0 mph6.4 kmh 30.07 in1018.3 mb 0.00 in0.0 mm 0.00 in0.0 mm 1.31 in33.3 mm
08:40 PM 73.9°F23.3°C 73.0°F22.8°C 97% 2.0 mph SE3.2 kmh SE 4.0 mph6.4 kmh 30.07 in1018.3 mb 0.00 in0.0 mm 0.00 in0.0 mm 1.31 in33.3 mm
08:45 PM 73.9°F23.3°C 73.0°F22.8°C 97% 3.0 mph SE4.8 kmh SE 5.0 mph8.0 kmh 30.06 in1017.9 mb 0.00 in0.0 mm 0.00 in0.0 mm 1.31 in33.3 mm
08:50 PM 74.0°F23.3°C 73.1°F22.8°C 97% 2.0 mph SE3.2 kmh SE 5.0 mph8.0 kmh 30.06 in1017.9 mb 0.00 in0.0 mm 0.00 in0.0 mm 1.31 in33.3 mm
08:55 PM 73.8°F23.2°C 72.9°F22.7°C 97% 2.0 mph SE3.2 kmh SE 5.0 mph8.0 kmh 30.06 in1017.9 mb 0.00 in0.0 mm 0.00 in0.0 mm 1.31 in33.3 mm
09:00 PM 73.8°F23.2°C 72.9°F22.7°C 97% 3.0 mph SE4.8 kmh SE 6.0 mph9.7 kmh 30.07 in1018.3 mb 0.00 in0.0 mm 0.00 in0.0 mm 1.31 in33.3 mm
09:05 PM 73.7°F23.2°C 72.8°F22.7°C 97% 3.0 mph SE4.8 kmh SE 6.0 mph9.7 kmh 30.06 in1017.9 mb 0.00 in0.0 mm 0.00 in0.0 mm 1.31 in33.3 mm
09:10 PM 73.6°F23.1°C 72.7°F22.6°C 97% 2.0 mph SE3.2 kmh SE 5.0 mph8.0 kmh 30.07 in1018.3 mb 0.00 in0.0 mm 0.00 in0.0 mm 1.31 in33.3 mm
09:15 PM 73.6°F23.1°C 72.7°F22.6°C 97% 2.0 mph SE3.2 kmh SE 5.0 mph8.0 kmh 30.07 in1018.3 mb 0.00 in0.0 mm 0.00 in0.0 mm 1.31 in33.3 mm
09:20 PM 73.5°F23.1°C 72.6°F22.6°C 97% 3.0 mph SSE4.8 kmh SSE 6.0 mph9.7 kmh 30.06 in1017.9 mb 0.00 in0.0 mm 0.00 in0.0 mm 1.31 in33.3 mm
09:25 PM 73.4°F23.0°C 72.5°F22.5°C 97% 3.0 mph SSE4.8 kmh SSE 6.0 mph9.7 kmh 30.06 in1017.9 mb 0.00 in0.0 mm 0.00 in0.0 mm 1.31 in33.3 mm
09:30 PM 73.3°F22.9°C 72.1°F22.3°C 96% 3.0 mph SSE4.8 kmh SSE 5.0 mph8.0 kmh 30.06 in1017.9 mb 0.00 in0.0 mm 0.00 in0.0 mm 1.31 in33.3 mm
09:35 PM 73.2°F22.9°C 72.3°F22.4°C 97% 3.0 mph SSE4.8 kmh SSE 5.0 mph8.0 kmh 30.06 in1017.9 mb 0.00 in0.0 mm 0.00 in0.0 mm 1.31 in33.3 mm
09:40 PM 73.2°F22.9°C 72.0°F22.2°C 96% 3.0 mph SSE4.8 kmh SSE 5.0 mph8.0 kmh 30.06 in1017.9 mb 0.00 in0.0 mm 0.00 in0.0 mm 1.31 in33.3 mm
09:45 PM 73.1°F22.8°C 72.2°F22.3°C 97% 3.0 mph SSE4.8 kmh SSE 5.0 mph8.0 kmh 30.05 in1017.6 mb 0.00 in0.0 mm 0.00 in0.0 mm 1.31 in33.3 mm
09:50 PM 73.0°F22.8°C 71.8°F22.1°C 96% 3.0 mph SSE4.8 kmh SSE 6.0 mph9.7 kmh 30.05 in1017.6 mb 0.00 in0.0 mm 0.00 in0.0 mm 1.31 in33.3 mm
09:55 PM 72.9°F22.7°C 71.7°F22.1°C 96% 4.0 mph SSE6.4 kmh SSE 7.0 mph11.3 kmh 30.05 in1017.6 mb 0.00 in0.0 mm 0.00 in0.0 mm 1.31 in33.3 mm
10:00 PM 72.8°F22.7°C 71.6°F22.0°C 96% 4.0 mph S6.4 kmh S 7.0 mph11.3 kmh 30.05 in1017.6 mb 0.00 in0.0 mm 0.00 in0.0 mm 1.31 in33.3 mm
10:05 PM 72.8°F22.7°C 71.6°F22.0°C 96% 5.0 mph S8.0 kmh S 8.0 mph12.9 kmh 30.05 in1017.6 mb 0.00 in0.0 mm 0.00 in0.0 mm 1.31 in33.3 mm
10:10 PM 72.8°F22.7°C 71.6°F22.0°C 96% 5.0 mph S8.0 kmh S 8.0 mph12.9 kmh 30.05 in1017.6 mb 0.00 in0.0 mm 0.00 in0.0 mm 1.31 in33.3 mm
10:15 PM 72.7°F22.6°C 71.5°F21.9°C 96% 4.0 mph S6.4 kmh S 8.0 mph12.9 kmh 30.05 in1017.6 mb 0.00 in0.0 mm 0.00 in0.0 mm 1.31 in33.3 mm
10:20 PM 72.7°F22.6°C 71.5°F21.9°C 96% 3.0 mph SSE4.8 kmh SSE 6.0 mph9.7 kmh 30.05 in1017.6 mb 0.00 in0.0 mm 0.00 in0.0 mm 1.31 in33.3 mm
10:25 PM 72.7°F22.6°C 71.5°F21.9°C 96% 3.0 mph SSE4.8 kmh SSE 5.0 mph8.0 kmh 30.05 in1017.6 mb 0.00 in0.0 mm 0.00 in0.0 mm 1.31 in33.3 mm
10:30 PM 72.7°F22.6°C 71.8°F22.1°C 97% 3.0 mph SSE4.8 kmh SSE 6.0 mph9.7 kmh 30.05 in1017.6 mb 0.00 in0.0 mm 0.00 in0.0 mm 1.31 in33.3 mm
10:35 PM 72.7°F22.6°C 71.8°F22.1°C 97% 3.0 mph SSE4.8 kmh SSE 6.0 mph9.7 kmh 30.05 in1017.6 mb 0.00 in0.0 mm 0.00 in0.0 mm 1.31 in33.3 mm
10:40 PM 72.7°F22.6°C 71.8°F22.1°C 97% 3.0 mph S4.8 kmh S 5.0 mph8.0 kmh 30.05 in1017.6 mb 0.00 in0.0 mm 0.00 in0.0 mm 1.31 in33.3 mm
10:45 PM 72.7°F22.6°C 71.8°F22.1°C 97% 2.0 mph S3.2 kmh S 5.0 mph8.0 kmh 30.05 in1017.6 mb 0.00 in0.0 mm 0.00 in0.0 mm 1.31 in33.3 mm
10:50 PM 72.6°F22.6°C 71.7°F22.1°C 97% 3.0 mph S4.8 kmh S 6.0 mph9.7 kmh 30.04 in1017.3 mb 0.00 in0.0 mm 0.00 in0.0 mm 1.31 in33.3 mm
10:55 PM 72.6°F22.6°C 71.4°F21.9°C 96% 4.0 mph S6.4 kmh S 6.0 mph9.7 kmh 30.05 in1017.6 mb 0.00 in0.0 mm 0.00 in0.0 mm 1.31 in33.3 mm
11:00 PM 72.6°F22.6°C 71.7°F22.1°C 97% 3.0 mph S4.8 kmh S 6.0 mph9.7 kmh 30.05 in1017.6 mb 0.00 in0.0 mm 0.00 in0.0 mm 1.02 in25.9 mm
11:05 PM 72.6°F22.6°C 71.7°F22.1°C 97% 1.0 mph S1.6 kmh S 4.0 mph6.4 kmh 30.05 in1017.6 mb 0.00 in0.0 mm 0.00 in0.0 mm 1.02 in25.9 mm
11:10 PM 72.6°F22.6°C 71.7°F22.1°C 97% Calm Calm 2.0 mph3.2 kmh 30.05 in1017.6 mb 0.00 in0.0 mm 0.00 in0.0 mm 1.02 in25.9 mm
11:15 PM 72.6°F22.6°C 71.7°F22.1°C 97% Calm Calm 2.0 mph3.2 kmh 30.05 in1017.6 mb 0.00 in0.0 mm 0.00 in0.0 mm 1.02 in25.9 mm
11:20 PM 72.6°F22.6°C 71.7°F22.1°C 97% Calm Calm 2.0 mph3.2 kmh 30.06 in1017.9 mb 0.00 in0.0 mm 0.00 in0.0 mm 1.02 in25.9 mm
11:25 PM 72.7°F22.6°C 71.8°F22.1°C 97% 1.0 mph S1.6 kmh S 3.0 mph4.8 kmh 30.06 in1017.9 mb 0.00 in0.0 mm 0.00 in0.0 mm 1.02 in25.9 mm
11:30 PM 72.7°F22.6°C 71.8°F22.1°C 97% 1.0 mph S1.6 kmh S 3.0 mph4.8 kmh 30.06 in1017.9 mb 0.00 in0.0 mm 0.00 in0.0 mm 1.02 in25.9 mm
11:35 PM 72.8°F22.7°C 71.9°F22.2°C 97% 1.0 mph SW1.6 kmh SW 4.0 mph6.4 kmh 30.06 in1017.9 mb 0.00 in0.0 mm 0.00 in0.0 mm 1.02 in25.9 mm
11:40 PM 72.8°F22.7°C 71.9°F22.2°C 97% 1.0 mph W1.6 kmh W 4.0 mph6.4 kmh 30.06 in1017.9 mb 0.00 in0.0 mm 0.00 in0.0 mm 1.02 in25.9 mm
11:45 PM 72.8°F22.7°C 71.9°F22.2°C 97% 1.0 mph WNW1.6 kmh WNW 2.0 mph3.2 kmh 30.06 in1017.9 mb 0.00 in0.0 mm 0.00 in0.0 mm 1.02 in25.9 mm
11:50 PM 72.7°F22.6°C 71.8°F22.1°C 97% 1.0 mph WNW1.6 kmh WNW 2.0 mph3.2 kmh 30.05 in1017.6 mb 0.00 in0.0 mm 0.00 in0.0 mm 1.02 in25.9 mm
11:55 PM 72.7°F22.6°C 71.8°F22.1°C 97% 1.0 mph WNW1.6 kmh WNW 3.0 mph4.8 kmh 30.05 in1017.6 mb 0.00 in0.0 mm 0.00 in0.0 mm 1.02 in25.9 mm